sensor_id;sensor_type;location;lat;lon;timestamp;P1;durP1;ratioP1;P2;durP2;ratioP2
69970;SDS011;57301;50.328;8.542;2023-11-21T00:01:03;8.10;;;4.68;;
69970;SDS011;57301;50.328;8.542;2023-11-21T00:03:31;15.43;;;6.30;;
69970;SDS011;57301;50.328;8.542;2023-11-21T00:05:57;12.77;;;6.78;;
69970;SDS011;57301;50.328;8.542;2023-11-21T00:08:24;12.00;;;5.40;;
69970;SDS011;57301;50.328;8.542;2023-11-21T00:10:51;8.85;;;4.90;;
69970;SDS011;57301;50.328;8.542;2023-11-21T00:13:17;9.68;;;5.45;;
69970;SDS011;57301;50.328;8.542;2023-11-21T00:15:44;17.83;;;7.63;;
69970;SDS011;57301;50.328;8.542;2023-11-21T00:18:10;14.93;;;6.85;;
69970;SDS011;57301;50.328;8.542;2023-11-21T00:20:37;11.23;;;6.15;;
69970;SDS011;57301;50.328;8.542;2023-11-21T00:23:04;10.55;;;5.68;;
69970;SDS011;57301;50.328;8.542;2023-11-21T00:25:30;10.30;;;5.97;;
69970;SDS011;57301;50.328;8.542;2023-11-21T00:27:58;11.30;;;6.37;;
69970;SDS011;57301;50.328;8.542;2023-11-21T00:30:24;10.80;;;6.10;;
69970;SDS011;57301;50.328;8.542;2023-11-21T00:32:51;11.45;;;6.43;;
69970;SDS011;57301;50.328;8.542;2023-11-21T00:35:18;9.95;;;6.00;;
69970;SDS011;57301;50.328;8.542;2023-11-21T00:37:44;10.45;;;5.93;;
69970;SDS011;57301;50.328;8.542;2023-11-21T00:40:11;11.90;;;5.77;;
69970;SDS011;57301;50.328;8.542;2023-11-21T00:42:38;11.13;;;6.00;;
69970;SDS011;57301;50.328;8.542;2023-11-21T00:45:06;12.45;;;6.13;;
69970;SDS011;57301;50.328;8.542;2023-11-21T00:47:33;12.15;;;6.43;;
69970;SDS011;57301;50.328;8.542;2023-11-21T00:50:00;14.45;;;6.50;;
69970;SDS011;57301;50.328;8.542;2023-11-21T00:52:26;14.53;;;6.37;;
69970;SDS011;57301;50.328;8.542;2023-11-21T00:54:53;12.55;;;6.03;;
69970;SDS011;57301;50.328;8.542;2023-11-21T00:57:20;16.45;;;6.28;;
69970;SDS011;57301;50.328;8.542;2023-11-21T00:59:46;15.07;;;6.88;;
69970;SDS011;57301;50.328;8.542;2023-11-21T01:02:13;12.05;;;6.10;;
69970;SDS011;57301;50.328;8.542;2023-11-21T01:04:39;9.10;;;5.43;;
69970;SDS011;57301;50.328;8.542;2023-11-21T01:07:06;9.52;;;5.60;;
69970;SDS011;57301;50.328;8.542;2023-11-21T01:09:32;13.50;;;6.05;;
69970;SDS011;57301;50.328;8.542;2023-11-21T01:11:59;10.95;;;5.97;;
69970;SDS011;57301;50.328;8.542;2023-11-21T01:14:26;9.68;;;5.88;;
69970;SDS011;57301;50.328;8.542;2023-11-21T01:16:53;12.63;;;6.30;;
69970;SDS011;57301;50.328;8.542;2023-11-21T01:19:20;12.48;;;5.72;;
69970;SDS011;57301;50.328;8.542;2023-11-21T01:21:47;13.02;;;5.88;;
69970;SDS011;57301;50.328;8.542;2023-11-21T01:24:13;11.20;;;5.97;;
69970;SDS011;57301;50.328;8.542;2023-11-21T01:26:40;10.85;;;5.95;;
69970;SDS011;57301;50.328;8.542;2023-11-21T01:29:07;12.13;;;6.67;;
69970;SDS011;57301;50.328;8.542;2023-11-21T01:31:33;13.43;;;6.72;;
69970;SDS011;57301;50.328;8.542;2023-11-21T01:34:00;12.18;;;6.10;;
69970;SDS011;57301;50.328;8.542;2023-11-21T01:36:33;14.55;;;5.93;;
69970;SDS011;57301;50.328;8.542;2023-11-21T01:39:00;13.27;;;6.47;;
69970;SDS011;57301;50.328;8.542;2023-11-21T01:41:27;11.27;;;6.70;;
69970;SDS011;57301;50.328;8.542;2023-11-21T01:43:54;13.07;;;6.30;;
69970;SDS011;57301;50.328;8.542;2023-11-21T01:46:22;12.10;;;6.60;;
69970;SDS011;57301;50.328;8.542;2023-11-21T01:48:49;10.38;;;5.63;;
69970;SDS011;57301;50.328;8.542;2023-11-21T01:51:19;12.15;;;5.85;;
69970;SDS011;57301;50.328;8.542;2023-11-21T01:53:45;13.10;;;6.00;;
69970;SDS011;57301;50.328;8.542;2023-11-21T01:56:12;10.93;;;6.85;;
69970;SDS011;57301;50.328;8.542;2023-11-21T01:58:40;10.93;;;5.97;;
69970;SDS011;57301;50.328;8.542;2023-11-21T02:01:08;9.98;;;6.30;;
69970;SDS011;57301;50.328;8.542;2023-11-21T02:03:36;15.90;;;6.70;;
69970;SDS011;57301;50.328;8.542;2023-11-21T02:06:02;9.17;;;5.57;;
69970;SDS011;57301;50.328;8.542;2023-11-21T02:08:29;13.20;;;6.03;;
69970;SDS011;57301;50.328;8.542;2023-11-21T02:10:56;12.55;;;6.20;;
69970;SDS011;57301;50.328;8.542;2023-11-21T02:13:23;10.40;;;5.90;;
69970;SDS011;57301;50.328;8.542;2023-11-21T02:15:50;12.23;;;6.32;;
69970;SDS011;57301;50.328;8.542;2023-11-21T02:18:18;13.50;;;5.90;;
69970;SDS011;57301;50.328;8.542;2023-11-21T02:20:45;12.13;;;6.07;;
69970;SDS011;57301;50.328;8.542;2023-11-21T02:23:12;12.82;;;6.50;;
69970;SDS011;57301;50.328;8.542;2023-11-21T02:25:39;16.75;;;7.13;;
69970;SDS011;57301;50.328;8.542;2023-11-21T02:28:06;12.68;;;6.88;;
69970;SDS011;57301;50.328;8.542;2023-11-21T02:30:33;14.60;;;6.83;;
69970;SDS011;57301;50.328;8.542;2023-11-21T02:33:00;11.15;;;6.35;;
69970;SDS011;57301;50.328;8.542;2023-11-21T02:35:27;15.30;;;7.35;;
69970;SDS011;57301;50.328;8.542;2023-11-21T02:37:54;14.70;;;6.55;;
69970;SDS011;57301;50.328;8.542;2023-11-21T02:40:21;12.90;;;6.22;;
69970;SDS011;57301;50.328;8.542;2023-11-21T02:42:48;11.20;;;6.33;;
69970;SDS011;57301;50.328;8.542;2023-11-21T02:45:14;13.02;;;7.18;;
69970;SDS011;57301;50.328;8.542;2023-11-21T02:47:43;12.20;;;6.07;;
69970;SDS011;57301;50.328;8.542;2023-11-21T02:50:11;14.45;;;6.72;;
69970;SDS011;57301;50.328;8.542;2023-11-21T02:52:38;14.20;;;7.22;;
69970;SDS011;57301;50.328;8.542;2023-11-21T02:55:06;11.33;;;6.27;;
69970;SDS011;57301;50.328;8.542;2023-11-21T02:57:36;14.43;;;6.38;;
69970;SDS011;57301;50.328;8.542;2023-11-21T03:00:02;14.07;;;6.28;;
69970;SDS011;57301;50.328;8.542;2023-11-21T03:02:29;19.30;;;7.20;;
69970;SDS011;57301;50.328;8.542;2023-11-21T03:04:56;11.40;;;6.45;;
69970;SDS011;57301;50.328;8.542;2023-11-21T03:07:22;13.40;;;6.67;;
69970;SDS011;57301;50.328;8.542;2023-11-21T03:09:49;12.52;;;6.45;;
69970;SDS011;57301;50.328;8.542;2023-11-21T03:12:15;14.82;;;6.93;;
69970;SDS011;57301;50.328;8.542;2023-11-21T03:14:42;14.32;;;6.53;;
69970;SDS011;57301;50.328;8.542;2023-11-21T03:17:08;10.75;;;6.57;;
69970;SDS011;57301;50.328;8.542;2023-11-21T03:19:35;10.47;;;5.60;;
69970;SDS011;57301;50.328;8.542;2023-11-21T03:22:01;12.32;;;6.28;;
69970;SDS011;57301;50.328;8.542;2023-11-21T03:24:28;13.05;;;6.55;;
69970;SDS011;57301;50.328;8.542;2023-11-21T03:26:55;11.93;;;6.97;;
69970;SDS011;57301;50.328;8.542;2023-11-21T03:29:21;12.98;;;6.90;;
69970;SDS011;57301;50.328;8.542;2023-11-21T03:31:48;12.60;;;6.37;;
69970;SDS011;57301;50.328;8.542;2023-11-21T03:34:23;11.95;;;6.28;;
69970;SDS011;57301;50.328;8.542;2023-11-21T03:36:52;16.05;;;7.30;;
69970;SDS011;57301;50.328;8.542;2023-11-21T03:39:20;13.73;;;7.28;;
69970;SDS011;57301;50.328;8.542;2023-11-21T03:41:48;11.38;;;6.38;;
69970;SDS011;57301;50.328;8.542;2023-11-21T03:44:14;17.70;;;8.03;;
69970;SDS011;57301;50.328;8.542;2023-11-21T03:46:41;18.20;;;7.93;;
69970;SDS011;57301;50.328;8.542;2023-11-21T03:49:07;15.05;;;7.65;;
69970;SDS011;57301;50.328;8.542;2023-11-21T03:51:34;15.50;;;7.22;;
69970;SDS011;57301;50.328;8.542;2023-11-21T03:54:00;21.13;;;8.60;;
69970;SDS011;57301;50.328;8.542;2023-11-21T03:56:27;17.33;;;7.80;;
69970;SDS011;57301;50.328;8.542;2023-11-21T03:58:53;18.52;;;7.85;;
69970;SDS011;57301;50.328;8.542;2023-11-21T04:01:20;24.13;;;8.38;;
69970;SDS011;57301;50.328;8.542;2023-11-21T04:03:48;23.17;;;8.82;;
69970;SDS011;57301;50.328;8.542;2023-11-21T04:06:16;23.48;;;9.13;;
69970;SDS011;57301;50.328;8.542;2023-11-21T04:08:44;23.87;;;9.37;;
69970;SDS011;57301;50.328;8.542;2023-11-21T04:11:11;20.55;;;8.35;;
69970;SDS011;57301;50.328;8.542;2023-11-21T04:13:39;20.23;;;8.43;;
69970;SDS011;57301;50.328;8.542;2023-11-21T04:16:06;17.40;;;8.20;;
69970;SDS011;57301;50.328;8.542;2023-11-21T04:18:36;21.27;;;8.35;;
69970;SDS011;57301;50.328;8.542;2023-11-21T04:21:04;20.60;;;8.63;;
69970;SDS011;57301;50.328;8.542;2023-11-21T04:23:31;18.80;;;8.38;;
69970;SDS011;57301;50.328;8.542;2023-11-21T04:25:58;21.83;;;8.77;;
69970;SDS011;57301;50.328;8.542;2023-11-21T04:28:25;19.63;;;8.68;;
69970;SDS011;57301;50.328;8.542;2023-11-21T04:30:51;23.00;;;8.35;;
69970;SDS011;57301;50.328;8.542;2023-11-21T04:33:18;21.40;;;7.77;;
69970;SDS011;57301;50.328;8.542;2023-11-21T04:35:45;18.10;;;7.80;;
69970;SDS011;57301;50.328;8.542;2023-11-21T04:38:12;15.07;;;7.45;;
69970;SDS011;57301;50.328;8.542;2023-11-21T04:40:38;14.30;;;7.15;;
69970;SDS011;57301;50.328;8.542;2023-11-21T04:43:05;12.77;;;6.68;;
69970;SDS011;57301;50.328;8.542;2023-11-21T04:45:32;13.33;;;6.73;;
69970;SDS011;57301;50.328;8.542;2023-11-21T04:47:58;14.60;;;7.28;;
69970;SDS011;57301;50.328;8.542;2023-11-21T04:50:25;16.10;;;7.05;;
69970;SDS011;57301;50.328;8.542;2023-11-21T04:52:53;14.25;;;6.47;;
69970;SDS011;57301;50.328;8.542;2023-11-21T04:55:20;14.23;;;7.38;;
69970;SDS011;57301;50.328;8.542;2023-11-21T04:57:47;13.67;;;6.80;;
69970;SDS011;57301;50.328;8.542;2023-11-21T05:00:13;12.98;;;6.18;;
69970;SDS011;57301;50.328;8.542;2023-11-21T05:02:42;12.80;;;6.95;;
69970;SDS011;57301;50.328;8.542;2023-11-21T05:05:11;13.30;;;7.00;;
69970;SDS011;57301;50.328;8.542;2023-11-21T05:07:41;12.50;;;6.68;;
69970;SDS011;57301;50.328;8.542;2023-11-21T05:10:09;12.30;;;6.17;;
69970;SDS011;57301;50.328;8.542;2023-11-21T05:12:39;12.95;;;5.93;;
69970;SDS011;57301;50.328;8.542;2023-11-21T05:15:06;12.10;;;6.10;;
69970;SDS011;57301;50.328;8.542;2023-11-21T05:17:39;11.02;;;5.78;;
69970;SDS011;57301;50.328;8.542;2023-11-21T05:20:10;11.13;;;5.93;;
69970;SDS011;57301;50.328;8.542;2023-11-21T05:22:37;9.53;;;4.93;;
69970;SDS011;57301;50.328;8.542;2023-11-21T05:25:04;9.48;;;5.35;;
69970;SDS011;57301;50.328;8.542;2023-11-21T05:27:33;9.68;;;5.25;;
69970;SDS011;57301;50.328;8.542;2023-11-21T05:30:03;9.50;;;4.93;;
69970;SDS011;57301;50.328;8.542;2023-11-21T05:32:34;11.40;;;5.45;;
69970;SDS011;57301;50.328;8.542;2023-11-21T05:35:01;8.87;;;5.07;;
69970;SDS011;57301;50.328;8.542;2023-11-21T05:37:28;9.98;;;5.35;;
69970;SDS011;57301;50.328;8.542;2023-11-21T05:39:54;9.00;;;4.88;;
69970;SDS011;57301;50.328;8.542;2023-11-21T05:42:24;10.85;;;4.93;;
69970;SDS011;57301;50.328;8.542;2023-11-21T05:44:50;8.75;;;4.95;;
69970;SDS011;57301;50.328;8.542;2023-11-21T05:47:17;9.10;;;5.83;;
69970;SDS011;57301;50.328;8.542;2023-11-21T05:49:44;10.18;;;5.10;;
69970;SDS011;57301;50.328;8.542;2023-11-21T05:52:12;8.35;;;4.95;;
69970;SDS011;57301;50.328;8.542;2023-11-21T05:54:38;11.00;;;5.25;;
69970;SDS011;57301;50.328;8.542;2023-11-21T05:57:05;10.93;;;5.28;;
69970;SDS011;57301;50.328;8.542;2023-11-21T05:59:31;8.73;;;5.00;;
69970;SDS011;57301;50.328;8.542;2023-11-21T06:01:58;10.25;;;5.38;;
69970;SDS011;57301;50.328;8.542;2023-11-21T06:04:25;8.48;;;5.00;;
69970;SDS011;57301;50.328;8.542;2023-11-21T06:06:52;8.80;;;4.93;;
69970;SDS011;57301;50.328;8.542;2023-11-21T06:09:19;9.35;;;5.28;;
69970;SDS011;57301;50.328;8.542;2023-11-21T06:11:46;7.53;;;4.70;;
69970;SDS011;57301;50.328;8.542;2023-11-21T06:14:13;10.30;;;5.05;;
69970;SDS011;57301;50.328;8.542;2023-11-21T06:16:41;9.50;;;5.50;;
69970;SDS011;57301;50.328;8.542;2023-11-21T06:19:08;8.45;;;5.07;;
69970;SDS011;57301;50.328;8.542;2023-11-21T06:21:34;8.25;;;4.90;;
69970;SDS011;57301;50.328;8.542;2023-11-21T06:24:01;9.30;;;4.80;;
69970;SDS011;57301;50.328;8.542;2023-11-21T06:26:28;10.57;;;5.05;;
69970;SDS011;57301;50.328;8.542;2023-11-21T06:28:54;8.27;;;4.88;;
69970;SDS011;57301;50.328;8.542;2023-11-21T06:31:22;13.30;;;7.53;;
69970;SDS011;57301;50.328;8.542;2023-11-21T06:33:49;10.95;;;6.15;;
69970;SDS011;57301;50.328;8.542;2023-11-21T06:36:18;9.97;;;5.60;;
69970;SDS011;57301;50.328;8.542;2023-11-21T06:38:44;14.82;;;4.82;;
69970;SDS011;57301;50.328;8.542;2023-11-21T06:41:12;45.53;;;24.30;;
69970;SDS011;57301;50.328;8.542;2023-11-21T06:43:42;11.65;;;6.35;;
69970;SDS011;57301;50.328;8.542;2023-11-21T06:46:12;10.13;;;5.18;;
69970;SDS011;57301;50.328;8.542;2023-11-21T06:48:42;9.03;;;5.00;;
69970;SDS011;57301;50.328;8.542;2023-11-21T06:51:09;10.23;;;5.70;;
69970;SDS011;57301;50.328;8.542;2023-11-21T06:53:36;9.43;;;5.38;;
69970;SDS011;57301;50.328;8.542;2023-11-21T06:56:04;11.48;;;5.88;;
69970;SDS011;57301;50.328;8.542;2023-11-21T06:58:41;9.45;;;5.55;;
69970;SDS011;57301;50.328;8.542;2023-11-21T07:01:07;9.07;;;4.93;;
69970;SDS011;57301;50.328;8.542;2023-11-21T07:03:34;12.57;;;5.97;;
69970;SDS011;57301;50.328;8.542;2023-11-21T07:06:01;13.57;;;5.50;;
69970;SDS011;57301;50.328;8.542;2023-11-21T07:08:27;8.85;;;5.40;;
69970;SDS011;57301;50.328;8.542;2023-11-21T07:10:54;9.65;;;5.60;;
69970;SDS011;57301;50.328;8.542;2023-11-21T07:13:20;11.40;;;5.77;;
69970;SDS011;57301;50.328;8.542;2023-11-21T07:15:48;11.43;;;6.07;;
69970;SDS011;57301;50.328;8.542;2023-11-21T07:18:15;12.65;;;6.30;;
69970;SDS011;57301;50.328;8.542;2023-11-21T07:20:42;12.38;;;6.55;;
69970;SDS011;57301;50.328;8.542;2023-11-21T07:23:08;11.93;;;6.55;;
69970;SDS011;57301;50.328;8.542;2023-11-21T07:25:35;13.80;;;5.83;;
69970;SDS011;57301;50.328;8.542;2023-11-21T07:28:02;12.50;;;6.50;;
69970;SDS011;57301;50.328;8.542;2023-11-21T07:30:29;15.57;;;7.32;;
69970;SDS011;57301;50.328;8.542;2023-11-21T07:32:55;11.82;;;7.18;;
69970;SDS011;57301;50.328;8.542;2023-11-21T07:35:22;14.00;;;6.90;;
69970;SDS011;57301;50.328;8.542;2023-11-21T07:37:49;12.93;;;6.33;;
69970;SDS011;57301;50.328;8.542;2023-11-21T07:40:15;14.60;;;7.43;;
69970;SDS011;57301;50.328;8.542;2023-11-21T07:42:43;12.52;;;6.72;;
69970;SDS011;57301;50.328;8.542;2023-11-21T07:45:09;14.55;;;7.18;;
69970;SDS011;57301;50.328;8.542;2023-11-21T07:47:36;13.27;;;7.00;;
69970;SDS011;57301;50.328;8.542;2023-11-21T07:50:03;12.67;;;6.80;;
69970;SDS011;57301;50.328;8.542;2023-11-21T07:52:30;15.43;;;8.68;;
69970;SDS011;57301;50.328;8.542;2023-11-21T07:54:57;15.40;;;8.65;;
69970;SDS011;57301;50.328;8.542;2023-11-21T07:57:23;15.00;;;8.48;;
69970;SDS011;57301;50.328;8.542;2023-11-21T07:59:50;15.05;;;8.30;;
69970;SDS011;57301;50.328;8.542;2023-11-21T08:02:20;11.77;;;7.27;;
69970;SDS011;57301;50.328;8.542;2023-11-21T08:04:46;13.30;;;7.72;;
69970;SDS011;57301;50.328;8.542;2023-11-21T08:07:17;14.82;;;7.65;;
69970;SDS011;57301;50.328;8.542;2023-11-21T08:09:43;17.95;;;7.25;;
69970;SDS011;57301;50.328;8.542;2023-11-21T08:12:10;13.15;;;7.25;;
69970;SDS011;57301;50.328;8.542;2023-11-21T08:14:37;13.10;;;7.53;;
69970;SDS011;57301;50.328;8.542;2023-11-21T08:17:05;10.90;;;6.40;;
69970;SDS011;57301;50.328;8.542;2023-11-21T08:19:33;12.38;;;6.10;;
69970;SDS011;57301;50.328;8.542;2023-11-21T08:21:59;13.68;;;6.85;;
69970;SDS011;57301;50.328;8.542;2023-11-21T08:24:26;16.48;;;7.20;;
69970;SDS011;57301;50.328;8.542;2023-11-21T08:26:53;13.63;;;6.90;;
69970;SDS011;57301;50.328;8.542;2023-11-21T08:29:20;13.15;;;6.55;;
69970;SDS011;57301;50.328;8.542;2023-11-21T08:31:47;13.43;;;6.55;;
69970;SDS011;57301;50.328;8.542;2023-11-21T08:34:14;11.77;;;5.93;;
69970;SDS011;57301;50.328;8.542;2023-11-21T08:36:44;13.68;;;6.60;;
69970;SDS011;57301;50.328;8.542;2023-11-21T08:39:11;13.83;;;7.13;;
69970;SDS011;57301;50.328;8.542;2023-11-21T08:41:39;10.88;;;6.05;;
69970;SDS011;57301;50.328;8.542;2023-11-21T08:44:06;9.77;;;5.65;;
69970;SDS011;57301;50.328;8.542;2023-11-21T08:46:33;12.77;;;5.60;;
69970;SDS011;57301;50.328;8.542;2023-11-21T08:49:03;10.55;;;5.70;;
69970;SDS011;57301;50.328;8.542;2023-11-21T08:51:30;14.90;;;6.10;;
69970;SDS011;57301;50.328;8.542;2023-11-21T08:53:56;11.50;;;6.10;;
69970;SDS011;57301;50.328;8.542;2023-11-21T08:56:26;10.40;;;5.63;;
69970;SDS011;57301;50.328;8.542;2023-11-21T08:58:53;8.68;;;5.53;;
69970;SDS011;57301;50.328;8.542;2023-11-21T09:01:19;11.80;;;5.82;;
69970;SDS011;57301;50.328;8.542;2023-11-21T09:03:47;12.43;;;5.40;;
69970;SDS011;57301;50.328;8.542;2023-11-21T09:06:14;11.65;;;6.05;;
69970;SDS011;57301;50.328;8.542;2023-11-21T09:08:40;11.75;;;6.70;;
69970;SDS011;57301;50.328;8.542;2023-11-21T09:11:08;8.70;;;5.60;;
69970;SDS011;57301;50.328;8.542;2023-11-21T09:13:34;14.48;;;6.03;;
69970;SDS011;57301;50.328;8.542;2023-11-21T09:16:01;13.73;;;5.90;;
69970;SDS011;57301;50.328;8.542;2023-11-21T09:18:28;12.13;;;6.10;;
69970;SDS011;57301;50.328;8.542;2023-11-21T09:20:55;10.13;;;5.68;;
69970;SDS011;57301;50.328;8.542;2023-11-21T09:23:21;9.77;;;5.55;;
69970;SDS011;57301;50.328;8.542;2023-11-21T09:25:48;10.52;;;5.95;;
69970;SDS011;57301;50.328;8.542;2023-11-21T09:28:16;10.60;;;4.97;;
69970;SDS011;57301;50.328;8.542;2023-11-21T09:30:43;9.85;;;5.35;;
69970;SDS011;57301;50.328;8.542;2023-11-21T09:33:10;9.02;;;5.00;;
69970;SDS011;57301;50.328;8.542;2023-11-21T09:35:37;11.10;;;5.15;;
69970;SDS011;57301;50.328;8.542;2023-11-21T09:38:04;10.75;;;5.28;;
69970;SDS011;57301;50.328;8.542;2023-11-21T09:40:36;9.43;;;5.80;;
69970;SDS011;57301;50.328;8.542;2023-11-21T09:43:08;11.60;;;5.30;;
69970;SDS011;57301;50.328;8.542;2023-11-21T09:45:54;9.55;;;5.05;;
69970;SDS011;57301;50.328;8.542;2023-11-21T09:48:25;9.50;;;4.93;;
69970;SDS011;57301;50.328;8.542;2023-11-21T09:50:52;8.75;;;4.68;;
69970;SDS011;57301;50.328;8.542;2023-11-21T09:53:21;10.13;;;5.33;;
69970;SDS011;57301;50.328;8.542;2023-11-21T09:55:51;7.55;;;4.68;;
69970;SDS011;57301;50.328;8.542;2023-11-21T09:58:19;9.65;;;5.07;;
69970;SDS011;57301;50.328;8.542;2023-11-21T10:00:48;6.95;;;3.83;;
69970;SDS011;57301;50.328;8.542;2023-11-21T10:03:15;7.20;;;3.60;;
69970;SDS011;57301;50.328;8.542;2023-11-21T10:05:43;9.10;;;3.83;;
69970;SDS011;57301;50.328;8.542;2023-11-21T10:08:12;8.43;;;4.43;;
69970;SDS011;57301;50.328;8.542;2023-11-21T10:10:42;7.90;;;3.60;;
69970;SDS011;57301;50.328;8.542;2023-11-21T10:13:14;9.00;;;3.70;;
69970;SDS011;57301;50.328;8.542;2023-11-21T10:15:44;7.05;;;3.40;;
69970;SDS011;57301;50.328;8.542;2023-11-21T10:18:16;6.70;;;3.47;;
69970;SDS011;57301;50.328;8.542;2023-11-21T10:20:43;6.00;;;3.75;;
69970;SDS011;57301;50.328;8.542;2023-11-21T10:23:12;6.95;;;3.72;;
69970;SDS011;57301;50.328;8.542;2023-11-21T10:25:42;6.88;;;4.38;;
69970;SDS011;57301;50.328;8.542;2023-11-21T10:28:09;6.80;;;4.40;;
69970;SDS011;57301;50.328;8.542;2023-11-21T10:30:37;8.47;;;4.50;;
69970;SDS011;57301;50.328;8.542;2023-11-21T10:33:04;9.00;;;4.60;;
69970;SDS011;57301;50.328;8.542;2023-11-21T10:38:08;7.32;;;3.92;;
69970;SDS011;57301;50.328;8.542;2023-11-21T10:40:40;7.70;;;3.60;;
69970;SDS011;57301;50.328;8.542;2023-11-21T10:43:08;8.43;;;4.00;;
69970;SDS011;57301;50.328;8.542;2023-11-21T10:45:37;9.00;;;3.88;;
69970;SDS011;57301;50.328;8.542;2023-11-21T10:48:06;8.60;;;3.90;;
69970;SDS011;57301;50.328;8.542;2023-11-21T10:50:38;7.03;;;3.88;;
69970;SDS011;57301;50.328;8.542;2023-11-21T10:53:08;7.60;;;4.50;;
69970;SDS011;57301;50.328;8.542;2023-11-21T10:55:34;8.50;;;4.23;;
69970;SDS011;57301;50.328;8.542;2023-11-21T10:58:02;7.72;;;3.90;;
69970;SDS011;57301;50.328;8.542;2023-11-21T11:00:32;9.20;;;4.28;;
69970;SDS011;57301;50.328;8.542;2023-11-21T11:02:59;8.00;;;4.28;;
69970;SDS011;57301;50.328;8.542;2023-11-21T11:05:27;7.40;;;4.20;;
69970;SDS011;57301;50.328;8.542;2023-11-21T11:08:05;9.93;;;4.53;;
69970;SDS011;57301;50.328;8.542;2023-11-21T11:10:34;8.60;;;4.55;;
69970;SDS011;57301;50.328;8.542;2023-11-21T11:13:01;10.18;;;4.82;;
69970;SDS011;57301;50.328;8.542;2023-11-21T11:15:28;7.93;;;3.97;;
69970;SDS011;57301;50.328;8.542;2023-11-21T11:17:55;7.55;;;4.30;;
69970;SDS011;57301;50.328;8.542;2023-11-21T11:20:27;7.80;;;4.27;;
69970;SDS011;57301;50.328;8.542;2023-11-21T11:34:23;7.17;;;4.00;;
69970;SDS011;57301;50.328;8.542;2023-11-21T11:37:02;6.95;;;3.72;;
69970;SDS011;57301;50.328;8.542;2023-11-21T11:39:40;9.73;;;3.75;;
69970;SDS011;57301;50.328;8.542;2023-11-21T11:42:13;7.55;;;3.92;;
69970;SDS011;57301;50.328;8.542;2023-11-21T11:52:44;6.15;;;3.38;;
69970;SDS011;57301;50.328;8.542;2023-11-21T11:55:12;9.95;;;3.88;;
69970;SDS011;57301;50.328;8.542;2023-11-21T11:57:41;7.30;;;3.90;;
69970;SDS011;57301;50.328;8.542;2023-11-21T12:00:18;8.90;;;4.30;;
69970;SDS011;57301;50.328;8.542;2023-11-21T12:02:48;7.93;;;3.97;;
69970;SDS011;57301;50.328;8.542;2023-11-21T12:05:16;6.30;;;3.38;;
69970;SDS011;57301;50.328;8.542;2023-11-21T12:07:51;6.80;;;4.10;;
69970;SDS011;57301;50.328;8.542;2023-11-21T12:10:22;6.65;;;4.13;;
69970;SDS011;57301;50.328;8.542;2023-11-21T12:15:19;7.15;;;3.80;;
69970;SDS011;57301;50.328;8.542;2023-11-21T12:17:46;7.43;;;4.50;;
69970;SDS011;57301;50.328;8.542;2023-11-21T12:20:13;8.45;;;4.30;;
69970;SDS011;57301;50.328;8.542;2023-11-21T12:22:41;9.77;;;4.20;;
69970;SDS011;57301;50.328;8.542;2023-11-21T12:25:10;9.03;;;4.40;;
69970;SDS011;57301;50.328;8.542;2023-11-21T12:27:45;8.95;;;4.22;;
69970;SDS011;57301;50.328;8.542;2023-11-21T12:30:13;8.63;;;4.50;;
69970;SDS011;57301;50.328;8.542;2023-11-21T12:32:40;7.82;;;4.47;;
69970;SDS011;57301;50.328;8.542;2023-11-21T12:35:09;9.48;;;4.35;;
69970;SDS011;57301;50.328;8.542;2023-11-21T12:37:39;8.27;;;4.13;;
69970;SDS011;57301;50.328;8.542;2023-11-21T12:40:09;6.38;;;3.97;;
69970;SDS011;57301;50.328;8.542;2023-11-21T12:42:42;7.10;;;4.30;;
69970;SDS011;57301;50.328;8.542;2023-11-21T12:47:44;10.57;;;5.22;;
69970;SDS011;57301;50.328;8.542;2023-11-21T12:50:11;6.03;;;4.00;;
69970;SDS011;57301;50.328;8.542;2023-11-21T12:52:41;7.88;;;4.25;;
69970;SDS011;57301;50.328;8.542;2023-11-21T12:55:15;8.40;;;4.25;;
69970;SDS011;57301;50.328;8.542;2023-11-21T12:57:47;6.97;;;4.10;;
69970;SDS011;57301;50.328;8.542;2023-11-21T13:00:18;9.13;;;3.90;;
69970;SDS011;57301;50.328;8.542;2023-11-21T13:02:54;6.80;;;3.93;;
69970;SDS011;57301;50.328;8.542;2023-11-21T13:05:28;11.88;;;4.50;;
69970;SDS011;57301;50.328;8.542;2023-11-21T13:08:05;11.02;;;4.35;;
69970;SDS011;57301;50.328;8.542;2023-11-21T13:10:35;6.75;;;3.80;;
69970;SDS011;57301;50.328;8.542;2023-11-21T13:13:04;6.60;;;3.70;;
69970;SDS011;57301;50.328;8.542;2023-11-21T13:15:38;6.97;;;3.87;;
69970;SDS011;57301;50.328;8.542;2023-11-21T13:18:13;8.57;;;3.90;;
69970;SDS011;57301;50.328;8.542;2023-11-21T13:20:40;8.55;;;4.35;;
69970;SDS011;57301;50.328;8.542;2023-11-21T13:23:08;9.63;;;4.60;;
69970;SDS011;57301;50.328;8.542;2023-11-21T13:25:35;8.20;;;4.15;;
69970;SDS011;57301;50.328;8.542;2023-11-21T13:28:03;7.73;;;4.30;;
69970;SDS011;57301;50.328;8.542;2023-11-21T13:30:30;8.88;;;4.10;;
69970;SDS011;57301;50.328;8.542;2023-11-21T13:33:03;7.60;;;4.10;;
69970;SDS011;57301;50.328;8.542;2023-11-21T13:35:34;8.45;;;4.03;;
69970;SDS011;57301;50.328;8.542;2023-11-21T13:38:10;7.20;;;3.97;;
69970;SDS011;57301;50.328;8.542;2023-11-21T13:40:39;7.70;;;4.17;;
69970;SDS011;57301;50.328;8.542;2023-11-21T13:43:13;8.52;;;4.07;;
69970;SDS011;57301;50.328;8.542;2023-11-21T13:45:42;7.85;;;3.92;;
69970;SDS011;57301;50.328;8.542;2023-11-21T13:48:11;10.05;;;5.22;;
69970;SDS011;57301;50.328;8.542;2023-11-21T13:50:45;10.00;;;4.93;;
69970;SDS011;57301;50.328;8.542;2023-11-21T13:53:24;10.27;;;5.03;;
69970;SDS011;57301;50.328;8.542;2023-11-21T13:55:51;10.27;;;4.75;;
69970;SDS011;57301;50.328;8.542;2023-11-21T13:58:24;9.45;;;4.50;;
69970;SDS011;57301;50.328;8.542;2023-11-21T14:01:07;8.80;;;4.55;;
69970;SDS011;57301;50.328;8.542;2023-11-21T14:03:54;8.38;;;4.32;;
69970;SDS011;57301;50.328;8.542;2023-11-21T14:06:27;9.13;;;4.73;;
69970;SDS011;57301;50.328;8.542;2023-11-21T14:09:00;10.63;;;5.15;;
69970;SDS011;57301;50.328;8.542;2023-11-21T14:11:31;11.63;;;5.50;;
69970;SDS011;57301;50.328;8.542;2023-11-21T14:14:08;14.75;;;5.88;;
69970;SDS011;57301;50.328;8.542;2023-11-21T14:16:36;9.80;;;5.40;;
69970;SDS011;57301;50.328;8.542;2023-11-21T14:19:03;8.67;;;4.97;;
69970;SDS011;57301;50.328;8.542;2023-11-21T14:21:42;9.85;;;5.00;;
69970;SDS011;57301;50.328;8.542;2023-11-21T14:24:12;10.63;;;5.32;;
69970;SDS011;57301;50.328;8.542;2023-11-21T14:26:40;12.13;;;5.32;;
69970;SDS011;57301;50.328;8.542;2023-11-21T14:29:08;9.57;;;4.55;;
69970;SDS011;57301;50.328;8.542;2023-11-21T14:31:35;12.10;;;5.30;;
69970;SDS011;57301;50.328;8.542;2023-11-21T14:34:02;14.63;;;5.95;;
69970;SDS011;57301;50.328;8.542;2023-11-21T14:36:28;10.80;;;5.05;;
69970;SDS011;57301;50.328;8.542;2023-11-21T14:38:55;9.80;;;5.20;;
69970;SDS011;57301;50.328;8.542;2023-11-21T14:41:21;9.30;;;5.43;;
69970;SDS011;57301;50.328;8.542;2023-11-21T14:43:48;12.60;;;5.60;;
69970;SDS011;57301;50.328;8.542;2023-11-21T14:46:16;12.75;;;5.40;;
69970;SDS011;57301;50.328;8.542;2023-11-21T14:48:45;11.02;;;5.30;;
69970;SDS011;57301;50.328;8.542;2023-11-21T14:51:25;10.23;;;5.15;;
69970;SDS011;57301;50.328;8.542;2023-11-21T14:53:53;11.07;;;5.97;;
69970;SDS011;57301;50.328;8.542;2023-11-21T14:56:21;11.63;;;5.57;;
69970;SDS011;57301;50.328;8.542;2023-11-21T14:58:53;10.32;;;5.38;;
69970;SDS011;57301;50.328;8.542;2023-11-21T15:01:22;10.35;;;5.60;;
69970;SDS011;57301;50.328;8.542;2023-11-21T15:04:08;10.60;;;5.50;;
69970;SDS011;57301;50.328;8.542;2023-11-21T15:06:41;12.43;;;5.75;;
69970;SDS011;57301;50.328;8.542;2023-11-21T15:09:09;11.83;;;6.10;;
69970;SDS011;57301;50.328;8.542;2023-11-21T15:11:35;13.43;;;6.22;;